Time;durP1;ratioP1;P1;durP2;ratioP2;P2;SDS_P1;SDS_P2;PMS_P1;PMS_P2;Temp;Humidity;BMP_temperature;BMP_pressure;BME280_temperature;BME280_humidity;BME280_pressure;Samples;Min_cycle;Max_cycle;Signal;HPM_P1;HPM_P2
2023/03/18 00:00:37;;;;;;;;;;;12.00;99.90;;;;;;5053144;28;19933;-65
2023/03/18 00:03:03;;;;;;;;;;;12.10;99.90;;;;;;5064948;28;19924;-65
2023/03/18 00:05:29;;;;;;;;;;;12.00;99.90;;;;;;5081226;28;19934;-67
2023/03/18 00:07:56;;;;;;;;;;;12.10;99.90;;;;;;5080567;28;19931;-65
2023/03/18 00:10:21;;;;;;;;;;;12.00;99.90;;;;;;5086108;28;20007;-66
2023/03/18 00:12:47;;;;;;;;;;;12.00;99.90;;;;;;5073201;28;20028;-66
2023/03/18 00:15:14;;;;;;;;;;;12.00;99.90;;;;;;5087362;28;19936;-66
2023/03/18 00:17:41;;;;;;;;;;;12.00;99.90;;;;;;5063034;28;19924;-65
2023/03/18 00:20:08;;;;;;;;;;;12.00;99.90;;;;;;5089085;28;20372;-66
2023/03/18 00:22:34;;;;;;;;;;;12.00;99.90;;;;;;5071308;28;20014;-66
2023/03/18 00:25:00;;;;;;;;;;;12.00;99.90;;;;;;5075681;28;19924;-66
2023/03/18 00:27:26;;;;;;;;;;;12.00;99.90;;;;;;5084259;28;19939;-66
2023/03/18 00:29:52;;;;;;;;;;;12.00;99.90;;;;;;5089389;28;19928;-66
2023/03/18 00:32:17;;;;;;;;;;;12.00;99.90;;;;;;5070473;28;20278;-66
2023/03/18 00:34:44;;;;;;;;;;;12.00;99.90;;;;;;5094274;28;20003;-66
2023/03/18 00:37:17;;;;;;;;;;;12.00;99.90;;;;;;5072103;28;20361;-66
2023/03/18 00:39:44;;;;;;;;;;;12.00;99.90;;;;;;5093935;28;19982;-66
2023/03/18 00:42:11;;;;;;;;;;;11.90;99.90;;;;;;5072706;28;19979;-66
2023/03/18 00:44:38;;;;;;;;;;;11.90;99.90;;;;;;5091796;28;19981;-66
2023/03/18 00:47:05;;;;;;;;;;;11.80;99.90;;;;;;5086169;28;19928;-66
2023/03/18 00:49:30;;;;;;;;;;;11.80;99.90;;;;;;5083351;28;19932;-66
2023/03/18 00:51:56;;;;;;;;;;;11.80;99.90;;;;;;5076105;28;20464;-66
2023/03/18 00:54:23;;;;;;;;;;;11.80;99.90;;;;;;5093784;28;20330;-66
2023/03/18 00:56:49;;;;;;;;;;;11.80;99.90;;;;;;5091155;28;19924;-66
2023/03/18 00:59:15;;;;;;;;;;;11.70;99.90;;;;;;5057552;28;20301;-66
2023/03/18 01:01:40;;;;;;;;;;;11.70;99.90;;;;;;5080300;28;19932;-66
2023/03/18 01:04:06;;;;;;;;;;;11.70;99.90;;;;;;5054526;28;20267;-65
2023/03/18 01:06:33;;;;;;;;;;;11.60;99.90;;;;;;5086248;28;19976;-68
2023/03/18 01:09:00;;;;;;;;;;;11.60;99.90;;;;;;5071189;28;19934;-66
2023/03/18 01:11:26;;;;;;;;;;;11.60;99.90;;;;;;5084644;28;19928;-66
2023/03/18 01:13:53;;;;;;;;;;;11.50;99.90;;;;;;5075271;28;19924;-66
2023/03/18 01:16:20;;;;;;;;;;;11.50;99.90;;;;;;5082912;28;19924;-65
2023/03/18 01:18:46;;;;;;;;;;;11.50;99.90;;;;;;5092990;28;19936;-66
2023/03/18 01:21:12;;;;;;;;;;;11.40;99.90;;;;;;5081163;28;19924;-65
2023/03/18 01:23:38;;;;;;;;;;;11.40;99.90;;;;;;5093441;28;20395;-66
2023/03/18 01:26:04;;;;;;;;;;;11.30;99.90;;;;;;5069165;28;20013;-65
2023/03/18 01:28:30;;;;;;;;;;;11.30;99.90;;;;;;5075455;28;19928;-67
2023/03/18 01:30:56;;;;;;;;;;;11.30;99.90;;;;;;5083545;28;19994;-65
2023/03/18 01:33:22;;;;;;;;;;;11.30;99.90;;;;;;5075632;28;20466;-65
2023/03/18 01:35:55;;;;;;;;;;;11.20;99.90;;;;;;5087279;28;19928;-65
2023/03/18 01:38:22;;;;;;;;;;;11.20;99.90;;;;;;5075611;28;20007;-65
2023/03/18 01:40:48;;;;;;;;;;;11.20;99.90;;;;;;5085323;28;20020;-65
2023/03/18 01:43:17;;;;;;;;;;;11.10;99.90;;;;;;5073272;28;19931;-65
2023/03/18 01:46:06;;;;;;;;;;;11.10;99.90;;;;;;5072195;28;19928;-66
2023/03/18 01:48:34;;;;;;;;;;;11.10;99.90;;;;;;5064179;28;19933;-67
2023/03/18 01:51:05;;;;;;;;;;;11.10;99.90;;;;;;5055388;28;19924;-65
2023/03/18 01:53:35;;;;;;;;;;;11.00;99.90;;;;;;5060729;28;19925;-65
2023/03/18 01:56:01;;;;;;;;;;;11.00;99.90;;;;;;5072406;28;20023;-65
2023/03/18 01:58:30;;;;;;;;;;;11.00;99.90;;;;;;5064702;28;19924;-66
2023/03/18 02:01:03;;;;;;;;;;;11.00;99.90;;;;;;5072236;28;20035;-65
2023/03/18 02:03:29;;;;;;;;;;;10.90;99.90;;;;;;5073569;28;19947;-65
2023/03/18 02:05:55;;;;;;;;;;;10.90;99.90;;;;;;5074203;28;19920;-66
2023/03/18 02:08:20;;;;;;;;;;;10.90;99.90;;;;;;5071564;28;20043;-65
2023/03/18 02:10:47;;;;;;;;;;;10.90;99.90;;;;;;5072894;28;20047;-65
2023/03/18 02:13:14;;;;;;;;;;;10.90;99.90;;;;;;5073172;28;19928;-65
2023/03/18 02:15:44;;;;;;;;;;;10.90;99.90;;;;;;5089565;28;19927;-66
2023/03/18 02:18:12;;;;;;;;;;;10.90;99.90;;;;;;5092827;28;20345;-65
2023/03/18 02:20:42;;;;;;;;;;;10.80;99.90;;;;;;5092035;28;20019;-67
2023/03/18 02:23:33;;;;;;;;;;;10.90;99.90;;;;;;5083411;28;19975;-65
2023/03/18 02:25:59;;;;;;;;;;;10.90;99.90;;;;;;5075793;28;19924;-65
2023/03/18 02:28:26;;;;;;;;;;;10.90;99.90;;;;;;5074513;28;19981;-65
2023/03/18 02:30:54;;;;;;;;;;;10.90;99.90;;;;;;5091852;28;19924;-65
2023/03/18 02:33:21;;;;;;;;;;;10.80;99.90;;;;;;5085796;28;19981;-65
2023/03/18 02:35:51;;;;;;;;;;;10.80;99.90;;;;;;5073797;28;19936;-66
2023/03/18 02:38:17;;;;;;;;;;;10.80;99.90;;;;;;5092398;28;20136;-65
2023/03/18 02:40:42;;;;;;;;;;;10.80;99.90;;;;;;5086643;28;20011;-65
2023/03/18 02:43:17;;;;;;;;;;;10.80;99.90;;;;;;5071750;28;20286;-66
2023/03/18 02:46:08;;;;;;;;;;;10.70;99.90;;;;;;5069471;28;19928;-66
2023/03/18 02:48:36;;;;;;;;;;;10.70;99.90;;;;;;5065116;28;19931;-66
2023/03/18 02:51:02;;;;;;;;;;;10.70;99.90;;;;;;5070889;28;19924;-65
2023/03/18 02:53:28;;;;;;;;;;;10.70;99.90;;;;;;5054129;28;19928;-66
2023/03/18 02:55:53;;;;;;;;;;;10.60;99.90;;;;;;5070364;28;19924;-65
2023/03/18 02:58:19;;;;;;;;;;;10.60;99.90;;;;;;5054737;28;20015;-65
2023/03/18 03:00:44;;;;;;;;;;;10.60;99.90;;;;;;5053084;28;19929;-65
2023/03/18 03:03:10;;;;;;;;;;;10.50;99.90;;;;;;5066496;28;19924;-65
2023/03/18 03:05:36;;;;;;;;;;;10.50;99.90;;;;;;5065814;28;19924;-67
2023/03/18 03:08:02;;;;;;;;;;;10.50;99.90;;;;;;5082158;28;20041;-65
2023/03/18 03:10:28;;;;;;;;;;;10.40;99.90;;;;;;5073620;28;20379;-65
2023/03/18 03:12:55;;;;;;;;;;;10.40;99.90;;;;;;5091175;28;20400;-65
2023/03/18 03:15:20;;;;;;;;;;;10.40;99.90;;;;;;5084914;28;20378;-65
2023/03/18 03:17:47;;;;;;;;;;;10.30;99.90;;;;;;5072096;28;19924;-67
2023/03/18 03:20:14;;;;;;;;;;;10.30;99.90;;;;;;5084690;28;19978;-67
2023/03/18 03:22:40;;;;;;;;;;;10.30;99.90;;;;;;5073315;28;19928;-65
2023/03/18 03:25:07;;;;;;;;;;;10.30;99.90;;;;;;5091053;28;19973;-66
2023/03/18 03:27:32;;;;;;;;;;;10.30;99.90;;;;;;5074069;28;19935;-66
2023/03/18 03:29:58;;;;;;;;;;;10.20;99.90;;;;;;5091080;28;20348;-65
2023/03/18 03:32:24;;;;;;;;;;;10.20;99.90;;;;;;5089986;28;19924;-65
2023/03/18 03:34:49;;;;;;;;;;;10.20;99.90;;;;;;5073153;28;19993;-66
2023/03/18 03:37:15;;;;;;;;;;;10.20;99.90;;;;;;5078503;28;19928;-65
2023/03/18 03:39:41;;;;;;;;;;;10.10;99.90;;;;;;5078423;28;19950;-65
2023/03/18 03:42:06;;;;;;;;;;;10.10;99.90;;;;;;5090685;28;20046;-65
2023/03/18 03:44:32;;;;;;;;;;;10.10;99.90;;;;;;5091191;28;20018;-65
2023/03/18 03:46:57;;;;;;;;;;;10.10;99.90;;;;;;5067872;28;20377;-65
2023/03/18 03:49:23;;;;;;;;;;;10.10;99.90;;;;;;5077882;28;19931;-65
2023/03/18 03:51:49;;;;;;;;;;;10.00;99.90;;;;;;5073066;28;19924;-67
2023/03/18 03:54:15;;;;;;;;;;;10.10;99.90;;;;;;5090724;28;20321;-65
2023/03/18 03:56:41;;;;;;;;;;;10.10;99.90;;;;;;5090847;28;19924;-65
2023/03/18 03:59:09;;;;;;;;;;;10.00;99.90;;;;;;5063046;28;20051;-65
2023/03/18 04:01:34;;;;;;;;;;;10.00;99.90;;;;;;5090558;28;20300;-65
2023/03/18 04:04:01;;;;;;;;;;;10.00;99.90;;;;;;5088670;28;19932;-65
2023/03/18 04:06:27;;;;;;;;;;;10.00;99.90;;;;;;5060752;28;19929;-65
2023/03/18 04:08:53;;;;;;;;;;;10.00;99.90;;;;;;5063716;28;20029;-66
2023/03/18 04:11:19;;;;;;;;;;;10.00;99.90;;;;;;5068439;28;19991;-65
2023/03/18 04:13:45;;;;;;;;;;;10.00;99.90;;;;;;5062384;28;19931;-65
2023/03/18 04:16:11;;;;;;;;;;;10.00;99.90;;;;;;5056486;28;19971;-65
2023/03/18 04:18:36;;;;;;;;;;;10.00;99.90;;;;;;5073772;28;19971;-65
2023/03/18 04:21:02;;;;;;;;;;;10.00;99.90;;;;;;5073734;28;20362;-65
2023/03/18 04:23:27;;;;;;;;;;;10.00;99.90;;;;;;5057010;28;19925;-65
2023/03/18 04:25:53;;;;;;;;;;;9.90;99.90;;;;;;5063471;28;19979;-66
2023/03/18 04:28:19;;;;;;;;;;;9.90;99.90;;;;;;5092454;28;20457;-65
2023/03/18 04:30:44;;;;;;;;;;;9.90;99.90;;;;;;5073621;28;20007;-65
2023/03/18 04:33:11;;;;;;;;;;;9.90;99.90;;;;;;5094446;28;19924;-65
2023/03/18 04:35:37;;;;;;;;;;;9.90;99.90;;;;;;5094572;28;19924;-65
2023/03/18 04:38:03;;;;;;;;;;;9.90;99.90;;;;;;5094105;28;19950;-66
2023/03/18 04:40:28;;;;;;;;;;;9.90;99.90;;;;;;5065556;28;19925;-66
2023/03/18 04:42:54;;;;;;;;;;;9.80;99.90;;;;;;5084163;28;20388;-66
2023/03/18 04:45:20;;;;;;;;;;;9.80;99.90;;;;;;5073668;28;19928;-65
2023/03/18 04:47:45;;;;;;;;;;;9.80;99.90;;;;;;5073751;28;19929;-65
2023/03/18 04:50:12;;;;;;;;;;;9.80;99.90;;;;;;5072661;28;19934;-67
2023/03/18 04:52:38;;;;;;;;;;;9.70;99.90;;;;;;5073484;28;20282;-66
2023/03/18 04:55:04;;;;;;;;;;;9.70;99.90;;;;;;5073599;28;20066;-65
2023/03/18 04:57:30;;;;;;;;;;;9.70;99.90;;;;;;5056079;28;20031;-66
2023/03/18 04:59:57;;;;;;;;;;;9.70;99.90;;;;;;5062205;28;19955;-66
2023/03/18 05:02:23;;;;;;;;;;;9.70;99.90;;;;;;5084779;28;19977;-65
2023/03/18 05:04:48;;;;;;;;;;;9.70;99.90;;;;;;5093845;28;20019;-66
2023/03/18 05:07:15;;;;;;;;;;;9.70;99.90;;;;;;5093612;28;19928;-65
2023/03/18 05:09:40;;;;;;;;;;;9.60;99.90;;;;;;5090891;28;19970;-65
2023/03/18 05:12:10;;;;;;;;;;;9.70;99.90;;;;;;5089634;28;20008;-66
2023/03/18 05:14:35;;;;;;;;;;;9.60;99.90;;;;;;5073089;28;19939;-66
2023/03/18 05:17:03;;;;;;;;;;;9.60;99.90;;;;;;5075857;28;19924;-67
2023/03/18 05:19:28;;;;;;;;;;;9.60;99.90;;;;;;5092535;28;19928;-66
2023/03/18 05:21:54;;;;;;;;;;;9.60;99.90;;;;;;5087067;28;20341;-66
2023/03/18 05:24:20;;;;;;;;;;;9.60;99.90;;;;;;5075450;28;19931;-66
2023/03/18 05:26:46;;;;;;;;;;;9.60;99.90;;;;;;5093498;28;19928;-66
2023/03/18 05:29:12;;;;;;;;;;;9.60;99.90;;;;;;5058660;28;19935;-66
2023/03/18 05:31:38;;;;;;;;;;;9.60;99.90;;;;;;5080413;28;19924;-66
2023/03/18 05:34:05;;;;;;;;;;;9.60;99.90;;;;;;5080874;28;19924;-67
2023/03/18 05:36:31;;;;;;;;;;;9.70;99.90;;;;;;5093526;28;20392;-66
2023/03/18 05:38:57;;;;;;;;;;;9.70;99.90;;;;;;5093047;28;19939;-66
2023/03/18 05:41:23;;;;;;;;;;;9.70;99.90;;;;;;5083288;28;19924;-66
2023/03/18 05:43:49;;;;;;;;;;;9.70;99.90;;;;;;5072018;28;20397;-66
2023/03/18 05:46:15;;;;;;;;;;;9.70;99.90;;;;;;5072398;28;19932;-65
2023/03/18 05:48:41;;;;;;;;;;;9.70;99.90;;;;;;5072848;28;20297;-66
2023/03/18 05:51:06;;;;;;;;;;;9.70;99.90;;;;;;5072348;28;19925;-68
2023/03/18 05:53:32;;;;;;;;;;;9.70;99.90;;;;;;5056846;28;19928;-66
2023/03/18 05:55:58;;;;;;;;;;;9.70;99.90;;;;;;5072529;28;19939;-66
2023/03/18 05:58:24;;;;;;;;;;;9.70;99.90;;;;;;5071822;28;20424;-66
2023/03/18 06:00:51;;;;;;;;;;;9.70;99.90;;;;;;5086148;28;19924;-66
2023/03/18 06:03:18;;;;;;;;;;;9.70;99.90;;;;;;5082968;28;19924;-67
2023/03/18 06:05:43;;;;;;;;;;;9.80;99.90;;;;;;5084239;28;20014;-66
2023/03/18 06:08:09;;;;;;;;;;;9.80;99.90;;;;;;5092438;28;20051;-68
2023/03/18 06:10:35;;;;;;;;;;;9.80;99.90;;;;;;5092689;28;19932;-66
2023/03/18 06:13:01;;;;;;;;;;;9.70;99.90;;;;;;5070417;28;19929;-66
2023/03/18 06:15:26;;;;;;;;;;;9.70;99.90;;;;;;5051299;28;19971;-66
2023/03/18 06:17:52;;;;;;;;;;;9.80;99.90;;;;;;5086595;28;19924;-66
2023/03/18 06:20:18;;;;;;;;;;;9.80;99.90;;;;;;5091497;28;19947;-66
2023/03/18 06:22:48;;;;;;;;;;;9.70;99.90;;;;;;5088681;28;19960;-66
2023/03/18 06:25:14;;;;;;;;;;;9.70;99.90;;;;;;5072411;28;19931;-66
2023/03/18 06:27:40;;;;;;;;;;;9.70;99.90;;;;;;5092515;28;19928;-66
2023/03/18 06:30:06;;;;;;;;;;;9.70;99.90;;;;;;5092031;28;19968;-66
2023/03/18 06:32:32;;;;;;;;;;;9.70;99.90;;;;;;5074030;28;20036;-66
2023/03/18 06:34:58;;;;;;;;;;;9.70;99.90;;;;;;5087561;28;20459;-66
2023/03/18 06:37:24;;;;;;;;;;;9.80;99.90;;;;;;5074337;28;19928;-66
2023/03/18 06:39:50;;;;;;;;;;;9.80;99.90;;;;;;5084764;28;19931;-66
2023/03/18 06:42:15;;;;;;;;;;;9.80;99.90;;;;;;5073400;28;19932;-68
2023/03/18 06:44:43;;;;;;;;;;;9.90;99.90;;;;;;5072629;28;19964;-66
2023/03/18 06:47:08;;;;;;;;;;;9.90;99.90;;;;;;5074926;28;19975;-66
2023/03/18 06:49:34;;;;;;;;;;;9.90;99.90;;;;;;5091653;28;19971;-66
2023/03/18 06:52:01;;;;;;;;;;;9.90;99.90;;;;;;5080228;28;20070;-66
2023/03/18 06:54:27;;;;;;;;;;;9.90;99.90;;;;;;5076451;28;20061;-66
2023/03/18 06:56:53;;;;;;;;;;;9.90;99.90;;;;;;5054966;28;19924;-66
2023/03/18 06:59:20;;;;;;;;;;;10.00;99.90;;;;;;5071855;28;20474;-65
2023/03/18 07:01:45;;;;;;;;;;;10.00;99.90;;;;;;5091641;28;19950;-65
2023/03/18 07:04:11;;;;;;;;;;;10.00;99.90;;;;;;5091893;28;19924;-65
2023/03/18 07:06:37;;;;;;;;;;;10.10;99.90;;;;;;5075949;28;19920;-66
2023/03/18 07:09:03;;;;;;;;;;;10.10;99.90;;;;;;5071737;28;19928;-65
2023/03/18 07:11:29;;;;;;;;;;;10.30;99.90;;;;;;5070921;28;20008;-65
2023/03/18 07:13:54;;;;;;;;;;;10.40;99.90;;;;;;5070514;28;19974;-66
2023/03/18 07:16:20;;;;;;;;;;;10.50;99.90;;;;;;5068773;28;19925;-67
2023/03/18 07:18:45;;;;;;;;;;;10.70;99.90;;;;;;5071015;28;19976;-66
2023/03/18 07:21:12;;;;;;;;;;;11.10;99.90;;;;;;5047733;28;19967;-66
2023/03/18 07:23:38;;;;;;;;;;;11.70;99.90;;;;;;5050781;28;20339;-66
2023/03/18 07:26:03;;;;;;;;;;;12.30;99.90;;;;;;5049472;28;19928;-66
2023/03/18 07:28:29;;;;;;;;;;;12.70;99.90;;;;;;5049358;28;19924;-66
2023/03/18 07:30:55;;;;;;;;;;;12.80;99.90;;;;;;5051228;28;19932;-66
2023/03/18 07:33:20;;;;;;;;;;;12.70;99.90;;;;;;5049769;28;19935;-67
2023/03/18 07:35:47;;;;;;;;;;;12.70;99.90;;;;;;5050834;28;19932;-66
2023/03/18 07:38:12;;;;;;;;;;;12.60;99.90;;;;;;5050884;28;19968;-65
2023/03/18 07:40:38;;;;;;;;;;;12.50;99.90;;;;;;5049784;28;20033;-66
2023/03/18 07:43:04;;;;;;;;;;;12.60;99.90;;;;;;5066494;28;19929;-65
2023/03/18 07:45:30;;;;;;;;;;;12.90;99.90;;;;;;5049309;28;19936;-66
2023/03/18 07:47:56;;;;;;;;;;;13.00;99.90;;;;;;5066390;28;20341;-66
2023/03/18 07:50:21;;;;;;;;;;;12.90;99.90;;;;;;5050558;28;20267;-65
2023/03/18 07:52:47;;;;;;;;;;;12.70;99.90;;;;;;5050084;28;19939;-65
2023/03/18 07:55:13;;;;;;;;;;;12.50;99.90;;;;;;5049881;28;20381;-65
2023/03/18 07:57:39;;;;;;;;;;;12.40;99.90;;;;;;5050197;28;20427;-65
2023/03/18 08:00:06;;;;;;;;;;;12.30;99.90;;;;;;5056043;28;19925;-67
2023/03/18 08:02:32;;;;;;;;;;;12.30;99.90;;;;;;5057382;28;19929;-66
2023/03/18 08:04:57;;;;;;;;;;;12.20;99.90;;;;;;5066295;28;19928;-66
2023/03/18 08:07:23;;;;;;;;;;;12.20;99.90;;;;;;5064043;28;20378;-66
2023/03/18 08:09:49;;;;;;;;;;;12.20;99.90;;;;;;5059308;28;19925;-66
2023/03/18 08:12:15;;;;;;;;;;;12.20;99.90;;;;;;5063614;28;19997;-66
2023/03/18 08:14:41;;;;;;;;;;;12.10;99.90;;;;;;5065954;28;20004;-65
2023/03/18 08:17:07;;;;;;;;;;;12.20;99.90;;;;;;5046309;28;19925;-66
2023/03/18 08:19:33;;;;;;;;;;;12.20;99.90;;;;;;5048067;28;19959;-67
2023/03/18 08:21:59;;;;;;;;;;;12.20;99.90;;;;;;5048271;28;19932;-67
2023/03/18 08:24:25;;;;;;;;;;;12.20;99.90;;;;;;5050495;28;19964;-70
2023/03/18 08:26:51;;;;;;;;;;;12.20;99.90;;;;;;5050075;28;20409;-68
2023/03/18 08:29:16;;;;;;;;;;;12.20;99.90;;;;;;5045303;28;19940;-67
2023/03/18 08:31:42;;;;;;;;;;;12.10;99.90;;;;;;5050085;28;19935;-68
2023/03/18 08:34:08;;;;;;;;;;;12.10;99.90;;;;;;5049495;28;20059;-67
2023/03/18 08:36:33;;;;;;;;;;;12.10;99.90;;;;;;5049841;28;19925;-66
2023/03/18 08:38:59;;;;;;;;;;;12.10;99.90;;;;;;5048672;28;19974;-68
2023/03/18 08:41:26;;;;;;;;;;;12.10;99.90;;;;;;5044790;28;19961;-68
2023/03/18 08:43:52;;;;;;;;;;;12.10;99.90;;;;;;5043323;28;19921;-68
2023/03/18 08:46:18;;;;;;;;;;;12.10;99.90;;;;;;5054136;28;19925;-68
2023/03/18 08:48:43;;;;;;;;;;;12.10;99.90;;;;;;5052216;28;19955;-68
2023/03/18 08:51:09;;;;;;;;;;;12.10;99.90;;;;;;5053929;28;19933;-67
2023/03/18 08:53:35;;;;;;;;;;;12.10;99.90;;;;;;5053248;28;20028;-68
2023/03/18 08:56:02;;;;;;;;;;;12.10;99.90;;;;;;5053973;28;19925;-68
2023/03/18 08:58:27;;;;;;;;;;;12.10;99.90;;;;;;5053703;28;19924;-68
2023/03/18 09:00:54;;;;;;;;;;;12.20;99.90;;;;;;5052935;28;19931;-68
2023/03/18 09:03:20;;;;;;;;;;;12.20;99.90;;;;;;5060077;28;20031;-68
2023/03/18 09:05:52;;;;;;;;;;;12.20;99.90;;;;;;5071979;28;19928;-68
2023/03/18 09:08:18;;;;;;;;;;;12.20;99.90;;;;;;5067966;28;20335;-68
2023/03/18 09:10:44;;;;;;;;;;;12.20;99.90;;;;;;5054756;28;19925;-68
2023/03/18 09:13:10;;;;;;;;;;;12.20;99.90;;;;;;5069700;28;20011;-68
2023/03/18 09:15:35;;;;;;;;;;;12.20;99.90;;;;;;5072453;28;20016;-68
2023/03/18 09:18:01;;;;;;;;;;;12.10;99.90;;;;;;5072788;28;19951;-67
2023/03/18 09:20:27;;;;;;;;;;;12.10;99.90;;;;;;5041976;28;19925;-70
2023/03/18 09:22:53;;;;;;;;;;;12.10;99.90;;;;;;5080221;28;19935;-69
2023/03/18 09:25:18;;;;;;;;;;;12.10;99.90;;;;;;5092733;28;20290;-69
2023/03/18 09:27:44;;;;;;;;;;;12.20;99.90;;;;;;5093332;28;20018;-69
2023/03/18 09:30:10;;;;;;;;;;;12.20;99.90;;;;;;5090522;28;19935;-69
2023/03/18 09:32:36;;;;;;;;;;;12.30;99.90;;;;;;5066179;28;19924;-69
2023/03/18 09:35:03;;;;;;;;;;;12.30;99.90;;;;;;5088091;28;19946;-69
2023/03/18 09:37:29;;;;;;;;;;;12.40;99.90;;;;;;5075718;28;19935;-71
2023/03/18 09:39:54;;;;;;;;;;;12.50;99.90;;;;;;5070439;28;19924;-69
2023/03/18 09:42:27;;;;;;;;;;;12.60;99.90;;;;;;5089150;28;19924;-69
2023/03/18 09:44:55;;;;;;;;;;;12.70;99.90;;;;;;5056855;28;19924;-70
2023/03/18 09:47:39;;;;;;;;;;;12.70;99.90;;;;;;5067069;28;19933;-68
2023/03/18 09:50:15;;;;;;;;;;;12.80;99.90;;;;;;5066865;28;20027;-68
2023/03/18 09:52:45;;;;;;;;;;;12.80;99.90;;;;;;5044051;28;19924;-68
2023/03/18 09:55:11;;;;;;;;;;;12.80;99.90;;;;;;5072062;28;19998;-67
2023/03/18 09:57:44;;;;;;;;;;;12.90;99.90;;;;;;5071860;28;20016;-67
2023/03/18 10:00:19;;;;;;;;;;;13.00;99.90;;;;;;5073369;28;19925;-68
2023/03/18 10:02:54;;;;;;;;;;;13.20;99.90;;;;;;5037453;28;20003;-68
2023/03/18 10:05:25;;;;;;;;;;;13.50;99.90;;;;;;5071639;28;19932;-68
2023/03/18 10:07:53;;;;;;;;;;;13.90;99.90;;;;;;5069928;28;20004;-68
2023/03/18 10:10:23;;;;;;;;;;;14.00;99.90;;;;;;5056847;28;19932;-68
2023/03/18 10:12:56;;;;;;;;;;;14.10;99.90;;;;;;5061972;28;19929;-69
2023/03/18 10:15:21;;;;;;;;;;;14.20;99.90;;;;;;5054033;28;19975;-68
2023/03/18 10:17:52;;;;;;;;;;;14.30;99.90;;;;;;5071378;28;20045;-69
2023/03/18 10:20:36;;;;;;;;;;;14.40;99.90;;;;;;5071847;28;20055;-68
2023/03/18 10:23:18;;;;;;;;;;;14.70;99.90;;;;;;5065649;28;20011;-68
2023/03/18 10:25:53;;;;;;;;;;;14.90;99.90;;;;;;5072391;28;19924;-67
2023/03/18 10:28:24;;;;;;;;;;;15.00;99.90;;;;;;5072301;28;19963;-68
2023/03/18 10:30:53;;;;;;;;;;;15.10;99.90;;;;;;5070813;28;20278;-68
2023/03/18 10:33:30;;;;;;;;;;;15.10;99.90;;;;;;5054306;28;19928;-67
2023/03/18 10:36:02;;;;;;;;;;;15.10;99.90;;;;;;5071485;28;19936;-67
2023/03/18 10:38:36;;;;;;;;;;;15.10;99.90;;;;;;5058512;28;19928;-67
2023/03/18 10:41:12;;;;;;;;;;;15.20;99.90;;;;;;5054508;28;20348;-67
2023/03/18 10:43:38;;;;;;;;;;;15.30;99.90;;;;;;5062531;28;19947;-67
2023/03/18 10:46:06;;;;;;;;;;;15.40;99.90;;;;;;5053540;28;20309;-68
2023/03/18 10:48:34;;;;;;;;;;;15.60;99.90;;;;;;5071801;28;20004;-67
2023/03/18 10:51:21;;;;;;;;;;;15.60;99.90;;;;;;5070676;28;19924;-68
2023/03/18 10:54:06;;;;;;;;;;;15.70;99.90;;;;;;5071223;28;19971;-68
2023/03/18 10:56:34;;;;;;;;;;;15.70;99.90;;;;;;5067349;28;19925;-69
2023/03/18 10:59:00;;;;;;;;;;;15.70;99.90;;;;;;5070408;28;19928;-69
2023/03/18 11:01:27;;;;;;;;;;;15.80;99.90;;;;;;5068589;28;19928;-69
2023/03/18 11:03:57;;;;;;;;;;;15.80;99.90;;;;;;5074003;28;19931;-70
2023/03/18 11:06:28;;;;;;;;;;;15.90;99.90;;;;;;5055853;28;19929;-69
2023/03/18 11:09:04;;;;;;;;;;;15.80;99.90;;;;;;5070250;28;19990;-69
2023/03/18 11:11:32;;;;;;;;;;;15.70;99.90;;;;;;5070946;28;19967;-70
2023/03/18 11:13:58;;;;;;;;;;;15.60;99.90;;;;;;5070585;28;20131;-69
2023/03/18 11:16:37;;;;;;;;;;;15.50;99.90;;;;;;5070724;28;19935;-69
2023/03/18 11:19:17;;;;;;;;;;;15.40;99.90;;;;;;5070811;28;20380;-69
2023/03/18 11:21:43;;;;;;;;;;;15.30;99.90;;;;;;5068667;28;19924;-70
2023/03/18 11:24:33;;;;;;;;;;;15.30;99.90;;;;;;5070497;28;19931;-69
2023/03/18 11:26:58;;;;;;;;;;;15.40;99.90;;;;;;5069421;28;19932;-67
2023/03/18 11:29:32;;;;;;;;;;;15.50;99.90;;;;;;5058699;28;19928;-68
2023/03/18 11:31:58;;;;;;;;;;;15.60;99.90;;;;;;5064989;28;20399;-65
2023/03/18 11:34:25;;;;;;;;;;;15.70;99.90;;;;;;5070742;28;19928;-63
2023/03/18 11:36:57;;;;;;;;;;;15.70;99.90;;;;;;5052627;28;19924;-67
2023/03/18 11:39:23;;;;;;;;;;;15.80;99.90;;;;;;5070391;28;19924;-65
2023/03/18 11:41:51;;;;;;;;;;;15.80;99.90;;;;;;5070842;28;20359;-65
2023/03/18 11:44:18;;;;;;;;;;;15.80;99.90;;;;;;5070464;28;19956;-66
2023/03/18 11:46:51;;;;;;;;;;;15.70;99.90;;;;;;5070930;28;19943;-66
2023/03/18 11:49:18;;;;;;;;;;;15.70;99.90;;;;;;5070329;28;20221;-65
2023/03/18 11:51:51;;;;;;;;;;;15.50;99.90;;;;;;5070656;28;20044;-66
2023/03/18 11:54:23;;;;;;;;;;;15.50;99.90;;;;;;5069172;28;19935;-66
2023/03/18 11:56:52;;;;;;;;;;;15.40;99.90;;;;;;5067133;28;19928;-67
2023/03/18 11:59:36;;;;;;;;;;;15.40;99.90;;;;;;5069875;28;19991;-65
2023/03/18 12:02:21;;;;;;;;;;;15.40;99.90;;;;;;5083616;28;19928;-65
2023/03/18 12:04:47;;;;;;;;;;;15.40;99.90;;;;;;5073109;28;20340;-66
2023/03/18 12:07:14;;;;;;;;;;;15.30;99.90;;;;;;5068537;28;19928;-65
2023/03/18 12:09:46;;;;;;;;;;;15.40;99.90;;;;;;5079307;28;19925;-65
2023/03/18 12:12:30;;;;;;;;;;;15.40;99.90;;;;;;5072174;28;20001;-65
2023/03/18 12:15:04;;;;;;;;;;;15.50;99.90;;;;;;5090705;28;19975;-65
2023/03/18 12:17:38;;;;;;;;;;;15.60;99.90;;;;;;5088756;28;19924;-65
2023/03/18 12:20:18;;;;;;;;;;;15.70;99.90;;;;;;5072411;28;19928;-66
2023/03/18 12:22:59;;;;;;;;;;;15.80;99.90;;;;;;5056770;28;19931;-65
2023/03/18 12:25:39;;;;;;;;;;;15.80;99.90;;;;;;5073627;28;19928;-66
2023/03/18 12:28:05;;;;;;;;;;;15.90;99.90;;;;;;5073632;28;19986;-65
2023/03/18 12:30:49;;;;;;;;;;;16.00;99.90;;;;;;5067203;28;19924;-65
2023/03/18 12:33:18;;;;;;;;;;;16.10;99.90;;;;;;5068162;28;19929;-66
2023/03/18 12:35:50;;;;;;;;;;;16.00;99.90;;;;;;5074708;28;19925;-65
2023/03/18 12:38:34;;;;;;;;;;;16.10;99.90;;;;;;5073563;28;19945;-65
2023/03/18 12:41:19;;;;;;;;;;;16.10;99.90;;;;;;5073575;28;20061;-65
2023/03/18 12:43:57;;;;;;;;;;;16.10;99.90;;;;;;5056318;28;19934;-65
2023/03/18 12:46:32;;;;;;;;;;;16.10;99.90;;;;;;5055952;28;19936;-65
2023/03/18 12:49:16;;;;;;;;;;;16.10;99.90;;;;;;5073121;28;19925;-65
2023/03/18 12:52:02;;;;;;;;;;;16.20;99.90;;;;;;5072352;28;20041;-65
2023/03/18 12:54:31;;;;;;;;;;;16.20;99.90;;;;;;5048354;28;20119;-65
2023/03/18 12:57:19;;;;;;;;;;;16.30;99.90;;;;;;5073596;28;20022;-66
2023/03/18 12:59:48;;;;;;;;;;;16.20;99.90;;;;;;5077809;28;19971;-66
2023/03/18 13:02:13;;;;;;;;;;;16.50;99.90;;;;;;5091412;28;19985;-66
2023/03/18 13:04:41;;;;;;;;;;;16.40;99.90;;;;;;5093971;28;19924;-66
2023/03/18 13:07:18;;;;;;;;;;;16.50;99.90;;;;;;5094406;28;19997;-66
2023/03/18 13:09:53;;;;;;;;;;;16.60;99.90;;;;;;5070503;28;20006;-67
2023/03/18 13:12:18;;;;;;;;;;;16.70;99.90;;;;;;5083644;28;19924;-66
2023/03/18 13:15:02;;;;;;;;;;;16.70;99.90;;;;;;5086451;28;19932;-66
2023/03/18 13:17:31;;;;;;;;;;;16.70;99.90;;;;;;5055169;28;19925;-65
2023/03/18 13:19:58;;;;;;;;;;;16.80;99.90;;;;;;5070717;28;20019;-65
2023/03/18 13:22:42;;;;;;;;;;;16.70;99.90;;;;;;5072055;28;19932;-66
2023/03/18 13:25:27;;;;;;;;;;;16.70;99.90;;;;;;5073206;28;19935;-66
2023/03/18 13:28:12;;;;;;;;;;;16.60;99.90;;;;;;5019536;28;20007;-65
2023/03/18 13:30:52;;;;;;;;;;;16.60;99.90;;;;;;5059598;28;20027;-67
2023/03/18 13:33:30;;;;;;;;;;;16.60;99.90;;;;;;5062492;28;19935;-67
2023/03/18 13:36:09;;;;;;;;;;;16.60;99.90;;;;;;5073099;28;20027;-67
2023/03/18 13:38:54;;;;;;;;;;;16.70;99.90;;;;;;5071578;28;19929;-66
2023/03/18 13:41:21;;;;;;;;;;;16.70;99.90;;;;;;5055980;28;19994;-66
2023/03/18 13:43:48;;;;;;;;;;;16.70;99.90;;;;;;5072178;28;20000;-67
2023/03/18 13:46:22;;;;;;;;;;;16.70;99.90;;;;;;5072805;28;19925;-68
2023/03/18 13:48:53;;;;;;;;;;;16.60;99.90;;;;;;5071700;28;19947;-67
2023/03/18 13:51:39;;;;;;;;;;;16.60;99.90;;;;;;5072303;28;20289;-66
2023/03/18 13:54:10;;;;;;;;;;;16.60;99.90;;;;;;5072111;28;20482;-67
2023/03/18 13:56:42;;;;;;;;;;;16.60;99.90;;;;;;5072382;28;19935;-67
2023/03/18 13:59:27;;;;;;;;;;;16.60;99.90;;;;;;5035410;28;20007;-65
2023/03/18 14:01:53;;;;;;;;;;;16.60;99.90;;;;;;5063956;28;19990;-64
2023/03/18 14:04:51;;;;;;;;;;;16.60;99.90;;;;;;5080169;28;19986;-65
2023/03/18 14:07:20;;;;;;;;;;;16.60;99.90;;;;;;5032197;28;19936;-69
2023/03/18 14:10:02;;;;;;;;;;;16.70;99.90;;;;;;5053956;28;19928;-64
2023/03/18 14:12:31;;;;;;;;;;;16.70;99.90;;;;;;5070219;28;19982;-64
2023/03/18 14:15:07;;;;;;;;;;;16.70;99.90;;;;;;5055961;28;19982;-64
2023/03/18 14:17:52;;;;;;;;;;;16.70;99.90;;;;;;5071910;28;20043;-64
2023/03/18 14:20:20;;;;;;;;;;;16.70;99.90;;;;;;5071381;28;19925;-64
2023/03/18 14:22:47;;;;;;;;;;;16.70;99.90;;;;;;5072058;28;19928;-64
2023/03/18 14:25:13;;;;;;;;;;;16.70;99.90;;;;;;5070233;28;19929;-64
2023/03/18 14:27:58;;;;;;;;;;;16.70;99.90;;;;;;5071691;28;20711;-64